sensor_id;sensor_type;location;lat;lon;timestamp;P1;durP1;ratioP1;P2;durP2;ratioP2
12451;SDS011;6291;48.924;12.204;2022-07-23T00:03:37;15.05;;;8.35;;
12451;SDS011;6291;48.924;12.204;2022-07-23T00:08:42;10.20;;;8.57;;
12451;SDS011;6291;48.924;12.204;2022-07-23T00:13:45;10.13;;;7.80;;
12451;SDS011;6291;48.924;12.204;2022-07-23T00:18:48;9.15;;;7.63;;
12451;SDS011;6291;48.924;12.204;2022-07-23T00:23:53;9.02;;;7.78;;
12451;SDS011;6291;48.924;12.204;2022-07-23T00:28:56;23.60;;;18.80;;
12451;SDS011;6291;48.924;12.204;2022-07-23T00:34:00;38.95;;;31.90;;
12451;SDS011;6291;48.924;12.204;2022-07-23T00:39:05;33.03;;;24.70;;
12451;SDS011;6291;48.924;12.204;2022-07-23T00:44:15;22.93;;;18.93;;
12451;SDS011;6291;48.924;12.204;2022-07-23T00:49:19;12.25;;;9.45;;
12451;SDS011;6291;48.924;12.204;2022-07-23T00:54:25;12.95;;;8.77;;
12451;SDS011;6291;48.924;12.204;2022-07-23T00:59:29;13.13;;;8.93;;
12451;SDS011;6291;48.924;12.204;2022-07-23T01:04:33;10.52;;;9.30;;
12451;SDS011;6291;48.924;12.204;2022-07-23T01:09:38;10.03;;;9.00;;
12451;SDS011;6291;48.924;12.204;2022-07-23T01:14:41;10.07;;;8.67;;
12451;SDS011;6291;48.924;12.204;2022-07-23T01:19:45;12.63;;;9.50;;
12451;SDS011;6291;48.924;12.204;2022-07-23T01:24:50;9.47;;;8.57;;
12451;SDS011;6291;48.924;12.204;2022-07-23T01:29:59;13.05;;;9.20;;
12451;SDS011;6291;48.924;12.204;2022-07-23T01:35:04;11.45;;;8.50;;
12451;SDS011;6291;48.924;12.204;2022-07-23T01:40:10;11.35;;;8.70;;
12451;SDS011;6291;48.924;12.204;2022-07-23T01:45:13;12.93;;;9.20;;
12451;SDS011;6291;48.924;12.204;2022-07-23T01:50:22;9.13;;;8.00;;
12451;SDS011;6291;48.924;12.204;2022-07-23T01:55:53;9.73;;;8.40;;
12451;SDS011;6291;48.924;12.204;2022-07-23T02:00:57;11.23;;;8.73;;
12451;SDS011;6291;48.924;12.204;2022-07-23T02:06:00;11.73;;;9.98;;
12451;SDS011;6291;48.924;12.204;2022-07-23T02:11:05;12.10;;;9.68;;
12451;SDS011;6291;48.924;12.204;2022-07-23T02:16:08;15.13;;;9.52;;
12451;SDS011;6291;48.924;12.204;2022-07-23T02:21:14;16.17;;;8.35;;
12451;SDS011;6291;48.924;12.204;2022-07-23T02:26:19;8.57;;;6.78;;
12451;SDS011;6291;48.924;12.204;2022-07-23T02:31:25;6.43;;;4.07;;
12451;SDS011;6291;48.924;12.204;2022-07-23T02:36:30;3.97;;;2.30;;
12451;SDS011;6291;48.924;12.204;2022-07-23T02:41:35;5.20;;;2.15;;
12451;SDS011;6291;48.924;12.204;2022-07-23T02:46:38;4.65;;;2.60;;
12451;SDS011;6291;48.924;12.204;2022-07-23T02:51:42;5.70;;;2.90;;
12451;SDS011;6291;48.924;12.204;2022-07-23T02:56:47;2.83;;;2.20;;
12451;SDS011;6291;48.924;12.204;2022-07-23T03:01:52;2.88;;;2.42;;
12451;SDS011;6291;48.924;12.204;2022-07-23T03:06:55;2.85;;;2.17;;
12451;SDS011;6291;48.924;12.204;2022-07-23T03:12:01;3.13;;;1.90;;
12451;SDS011;6291;48.924;12.204;2022-07-23T03:17:05;3.20;;;2.10;;
12451;SDS011;6291;48.924;12.204;2022-07-23T03:22:10;2.92;;;1.88;;
12451;SDS011;6291;48.924;12.204;2022-07-23T03:27:14;3.55;;;1.85;;
12451;SDS011;6291;48.924;12.204;2022-07-23T03:32:18;3.47;;;2.15;;
12451;SDS011;6291;48.924;12.204;2022-07-23T03:37:22;3.55;;;2.58;;
12451;SDS011;6291;48.924;12.204;2022-07-23T03:42:26;3.38;;;1.95;;
12451;SDS011;6291;48.924;12.204;2022-07-23T03:47:30;2.38;;;2.03;;
12451;SDS011;6291;48.924;12.204;2022-07-23T03:52:36;4.23;;;1.97;;
12451;SDS011;6291;48.924;12.204;2022-07-23T03:57:40;2.47;;;2.10;;
12451;SDS011;6291;48.924;12.204;2022-07-23T04:02:44;4.78;;;2.58;;
12451;SDS011;6291;48.924;12.204;2022-07-23T04:07:47;4.40;;;2.47;;
12451;SDS011;6291;48.924;12.204;2022-07-23T04:12:53;3.85;;;1.95;;
12451;SDS011;6291;48.924;12.204;2022-07-23T04:17:57;3.58;;;2.47;;
12451;SDS011;6291;48.924;12.204;2022-07-23T04:23:10;3.53;;;2.10;;
12451;SDS011;6291;48.924;12.204;2022-07-23T04:28:16;2.45;;;2.08;;
12451;SDS011;6291;48.924;12.204;2022-07-23T04:43:34;3.25;;;2.25;;
12451;SDS011;6291;48.924;12.204;2022-07-23T04:48:37;3.63;;;2.75;;
12451;SDS011;6291;48.924;12.204;2022-07-23T04:53:43;2.90;;;2.53;;
12451;SDS011;6291;48.924;12.204;2022-07-23T04:58:48;4.18;;;2.42;;
12451;SDS011;6291;48.924;12.204;2022-07-23T05:03:51;2.17;;;1.80;;
12451;SDS011;6291;48.924;12.204;2022-07-23T05:08:55;3.50;;;2.50;;
12451;SDS011;6291;48.924;12.204;2022-07-23T05:14:00;4.67;;;2.23;;
12451;SDS011;6291;48.924;12.204;2022-07-23T05:19:03;3.00;;;2.37;;
12451;SDS011;6291;48.924;12.204;2022-07-23T05:24:09;3.23;;;2.50;;
12451;SDS011;6291;48.924;12.204;2022-07-23T05:29:14;3.50;;;2.28;;
12451;SDS011;6291;48.924;12.204;2022-07-23T05:34:17;4.35;;;2.15;;
12451;SDS011;6291;48.924;12.204;2022-07-23T05:39:21;3.88;;;1.70;;
12451;SDS011;6291;48.924;12.204;2022-07-23T05:44:26;1.70;;;1.50;;
12451;SDS011;6291;48.924;12.204;2022-07-23T05:49:36;3.30;;;2.10;;
12451;SDS011;6291;48.924;12.204;2022-07-23T05:54:57;3.10;;;1.97;;
12451;SDS011;6291;48.924;12.204;2022-07-23T06:00:03;3.25;;;2.00;;
12451;SDS011;6291;48.924;12.204;2022-07-23T06:05:14;4.05;;;2.65;;
12451;SDS011;6291;48.924;12.204;2022-07-23T06:10:19;4.85;;;2.80;;
12451;SDS011;6291;48.924;12.204;2022-07-23T06:15:24;6.22;;;3.22;;
12451;SDS011;6291;48.924;12.204;2022-07-23T06:20:28;4.63;;;3.78;;
12451;SDS011;6291;48.924;12.204;2022-07-23T06:25:32;15.27;;;8.13;;
12451;SDS011;6291;48.924;12.204;2022-07-23T06:30:37;4.78;;;3.78;;
12451;SDS011;6291;48.924;12.204;2022-07-23T06:35:42;5.72;;;4.50;;
12451;SDS011;6291;48.924;12.204;2022-07-23T06:40:45;5.40;;;4.63;;
12451;SDS011;6291;48.924;12.204;2022-07-23T06:45:50;5.72;;;4.25;;
12451;SDS011;6291;48.924;12.204;2022-07-23T06:50:53;5.50;;;4.22;;
12451;SDS011;6291;48.924;12.204;2022-07-23T06:55:58;5.50;;;4.25;;
12451;SDS011;6291;48.924;12.204;2022-07-23T07:01:03;6.47;;;5.28;;
12451;SDS011;6291;48.924;12.204;2022-07-23T07:06:06;5.40;;;4.75;;
12451;SDS011;6291;48.924;12.204;2022-07-23T07:11:10;6.15;;;5.28;;
12451;SDS011;6291;48.924;12.204;2022-07-23T07:16:15;5.07;;;4.63;;
12451;SDS011;6291;48.924;12.204;2022-07-23T07:21:18;5.13;;;4.53;;
12451;SDS011;6291;48.924;12.204;2022-07-23T07:26:22;6.77;;;4.70;;
12451;SDS011;6291;48.924;12.204;2022-07-23T07:31:26;5.13;;;4.63;;
12451;SDS011;6291;48.924;12.204;2022-07-23T07:36:30;6.65;;;5.93;;
12451;SDS011;6291;48.924;12.204;2022-07-23T07:41:34;6.28;;;4.80;;
12451;SDS011;6291;48.924;12.204;2022-07-23T07:46:38;5.27;;;4.77;;
12451;SDS011;6291;48.924;12.204;2022-07-23T07:51:42;5.40;;;4.77;;
12451;SDS011;6291;48.924;12.204;2022-07-23T07:56:46;6.43;;;5.00;;
12451;SDS011;6291;48.924;12.204;2022-07-23T08:01:51;5.85;;;4.90;;
12451;SDS011;6291;48.924;12.204;2022-07-23T08:06:55;4.93;;;4.43;;
12451;SDS011;6291;48.924;12.204;2022-07-23T08:11:58;5.15;;;4.70;;
12451;SDS011;6291;48.924;12.204;2022-07-23T08:17:03;5.27;;;4.77;;
12451;SDS011;6291;48.924;12.204;2022-07-23T08:22:15;5.40;;;4.90;;
12451;SDS011;6291;48.924;12.204;2022-07-23T08:27:18;5.53;;;5.00;;
12451;SDS011;6291;48.924;12.204;2022-07-23T08:32:23;6.90;;;4.47;;
12451;SDS011;6291;48.924;12.204;2022-07-23T08:37:45;5.03;;;4.60;;
12451;SDS011;6291;48.924;12.204;2022-07-23T08:42:49;6.15;;;5.05;;
12451;SDS011;6291;48.924;12.204;2022-07-23T08:47:55;5.95;;;5.40;;
12451;SDS011;6291;48.924;12.204;2022-07-23T08:53:05;5.27;;;4.77;;
12451;SDS011;6291;48.924;12.204;2022-07-23T08:58:09;5.30;;;4.90;;
12451;SDS011;6291;48.924;12.204;2022-07-23T09:03:16;6.45;;;5.10;;
12451;SDS011;6291;48.924;12.204;2022-07-23T09:08:21;5.10;;;4.70;;
12451;SDS011;6291;48.924;12.204;2022-07-23T09:13:32;5.68;;;4.90;;
12451;SDS011;6291;48.924;12.204;2022-07-23T09:18:40;5.10;;;4.60;;
12451;SDS011;6291;48.924;12.204;2022-07-23T09:23:48;5.00;;;4.50;;
12451;SDS011;6291;48.924;12.204;2022-07-23T09:28:54;5.35;;;4.85;;
12451;SDS011;6291;48.924;12.204;2022-07-23T09:34:08;5.57;;;5.07;;
12451;SDS011;6291;48.924;12.204;2022-07-23T09:39:13;5.78;;;5.22;;
12451;SDS011;6291;48.924;12.204;2022-07-23T09:44:19;6.13;;;5.33;;
12451;SDS011;6291;48.924;12.204;2022-07-23T09:49:30;5.97;;;5.43;;
12451;SDS011;6291;48.924;12.204;2022-07-23T09:54:34;6.50;;;5.70;;
12451;SDS011;6291;48.924;12.204;2022-07-23T09:59:39;6.67;;;6.00;;
12451;SDS011;6291;48.924;12.204;2022-07-23T10:04:45;6.68;;;5.88;;
12451;SDS011;6291;48.924;12.204;2022-07-23T10:09:57;7.30;;;6.03;;
12451;SDS011;6291;48.924;12.204;2022-07-23T10:15:02;6.07;;;5.55;;
12451;SDS011;6291;48.924;12.204;2022-07-23T10:20:08;6.17;;;5.57;;
12451;SDS011;6291;48.924;12.204;2022-07-23T10:25:14;6.10;;;5.27;;
12451;SDS011;6291;48.924;12.204;2022-07-23T10:30:28;5.67;;;4.77;;
12451;SDS011;6291;48.924;12.204;2022-07-23T10:35:39;5.50;;;5.00;;
12451;SDS011;6291;48.924;12.204;2022-07-23T10:40:53;5.30;;;4.90;;
12451;SDS011;6291;48.924;12.204;2022-07-23T10:46:21;5.30;;;4.80;;
12451;SDS011;6291;48.924;12.204;2022-07-23T10:51:30;5.20;;;4.70;;
12451;SDS011;6291;48.924;12.204;2022-07-23T11:02:22;4.97;;;4.53;;
12451;SDS011;6291;48.924;12.204;2022-07-23T11:07:29;4.60;;;4.13;;
12451;SDS011;6291;48.924;12.204;2022-07-23T11:12:36;5.00;;;4.50;;
12451;SDS011;6291;48.924;12.204;2022-07-23T11:23:03;4.70;;;4.30;;
12451;SDS011;6291;48.924;12.204;2022-07-23T11:28:08;4.47;;;4.07;;
12451;SDS011;6291;48.924;12.204;2022-07-23T11:33:18;4.43;;;4.10;;
12451;SDS011;6291;48.924;12.204;2022-07-23T11:38:24;5.20;;;4.70;;
12451;SDS011;6291;48.924;12.204;2022-07-23T11:43:28;4.25;;;3.85;;
12451;SDS011;6291;48.924;12.204;2022-07-23T11:48:33;4.50;;;4.10;;
12451;SDS011;6291;48.924;12.204;2022-07-23T11:53:44;4.20;;;3.90;;
12451;SDS011;6291;48.924;12.204;2022-07-23T11:58:54;4.20;;;3.90;;
12451;SDS011;6291;48.924;12.204;2022-07-23T12:04:01;4.20;;;3.80;;
12451;SDS011;6291;48.924;12.204;2022-07-23T12:09:08;4.87;;;4.47;;
12451;SDS011;6291;48.924;12.204;2022-07-23T12:14:13;4.80;;;4.40;;
12451;SDS011;6291;48.924;12.204;2022-07-23T12:19:17;4.88;;;4.47;;
12451;SDS011;6291;48.924;12.204;2022-07-23T12:24:23;4.95;;;4.53;;
12451;SDS011;6291;48.924;12.204;2022-07-23T12:29:33;4.00;;;3.70;;
12451;SDS011;6291;48.924;12.204;2022-07-23T12:34:37;3.53;;;3.22;;
12451;SDS011;6291;48.924;12.204;2022-07-23T12:39:43;3.30;;;3.10;;
12451;SDS011;6291;48.924;12.204;2022-07-23T12:45:02;3.80;;;3.50;;
12451;SDS011;6291;48.924;12.204;2022-07-23T12:55:38;4.22;;;3.90;;
12451;SDS011;6291;48.924;12.204;2022-07-23T13:01:03;4.10;;;3.80;;
12451;SDS011;6291;48.924;12.204;2022-07-23T13:06:08;5.18;;;4.00;;
12451;SDS011;6291;48.924;12.204;2022-07-23T13:11:16;4.30;;;3.90;;
12451;SDS011;6291;48.924;12.204;2022-07-23T13:16:21;4.30;;;4.00;;
12451;SDS011;6291;48.924;12.204;2022-07-23T13:21:28;4.10;;;3.80;;
12451;SDS011;6291;48.924;12.204;2022-07-23T13:26:34;4.25;;;3.80;;
12451;SDS011;6291;48.924;12.204;2022-07-23T13:31:38;3.92;;;3.63;;
12451;SDS011;6291;48.924;12.204;2022-07-23T13:36:42;4.05;;;3.75;;
12451;SDS011;6291;48.924;12.204;2022-07-23T13:41:50;4.22;;;3.83;;
12451;SDS011;6291;48.924;12.204;2022-07-23T13:46:54;4.00;;;3.67;;
12451;SDS011;6291;48.924;12.204;2022-07-23T13:51:58;4.15;;;3.75;;
12451;SDS011;6291;48.924;12.204;2022-07-23T13:57:03;3.80;;;3.50;;
12451;SDS011;6291;48.924;12.204;2022-07-23T14:02:07;3.97;;;3.67;;
12451;SDS011;6291;48.924;12.204;2022-07-23T14:07:22;3.75;;;3.35;;
12451;SDS011;6291;48.924;12.204;2022-07-23T14:12:27;4.40;;;4.00;;
12451;SDS011;6291;48.924;12.204;2022-07-23T14:17:35;4.65;;;4.25;;
12451;SDS011;6291;48.924;12.204;2022-07-23T14:22:39;4.00;;;3.70;;
12451;SDS011;6291;48.924;12.204;2022-07-23T14:27:45;4.70;;;4.30;;
12451;SDS011;6291;48.924;12.204;2022-07-23T14:32:48;4.63;;;4.28;;
12451;SDS011;6291;48.924;12.204;2022-07-23T14:37:52;4.70;;;4.30;;
12451;SDS011;6291;48.924;12.204;2022-07-23T14:42:57;4.73;;;4.00;;
12451;SDS011;6291;48.924;12.204;2022-07-23T14:48:00;6.60;;;5.78;;
12451;SDS011;6291;48.924;12.204;2022-07-23T14:53:05;5.50;;;5.00;;
12451;SDS011;6291;48.924;12.204;2022-07-23T14:58:10;5.10;;;4.50;;
12451;SDS011;6291;48.924;12.204;2022-07-23T15:03:14;5.78;;;4.40;;
12451;SDS011;6291;48.924;12.204;2022-07-23T15:08:17;4.90;;;4.50;;
12451;SDS011;6291;48.924;12.204;2022-07-23T15:13:25;4.75;;;4.30;;
12451;SDS011;6291;48.924;12.204;2022-07-23T15:18:29;5.50;;;4.22;;
12451;SDS011;6291;48.924;12.204;2022-07-23T15:23:33;4.60;;;4.30;;
12451;SDS011;6291;48.924;12.204;2022-07-23T15:28:37;4.40;;;4.00;;
12451;SDS011;6291;48.924;12.204;2022-07-23T15:33:41;4.68;;;4.20;;
12451;SDS011;6291;48.924;12.204;2022-07-23T15:38:44;4.80;;;4.40;;
12451;SDS011;6291;48.924;12.204;2022-07-23T15:43:50;4.10;;;3.70;;
12451;SDS011;6291;48.924;12.204;2022-07-23T15:48:56;4.40;;;3.85;;
12451;SDS011;6291;48.924;12.204;2022-07-23T15:53:59;4.00;;;3.63;;
12451;SDS011;6291;48.924;12.204;2022-07-23T15:59:04;3.92;;;3.53;;
12451;SDS011;6291;48.924;12.204;2022-07-23T16:04:10;4.28;;;3.88;;
12451;SDS011;6291;48.924;12.204;2022-07-23T16:09:13;4.25;;;3.90;;
12451;SDS011;6291;48.924;12.204;2022-07-23T16:14:22;3.83;;;3.53;;
12451;SDS011;6291;48.924;12.204;2022-07-23T16:19:25;4.57;;;4.13;;
12451;SDS011;6291;48.924;12.204;2022-07-23T16:24:29;4.60;;;4.20;;
12451;SDS011;6291;48.924;12.204;2022-07-23T16:29:33;4.47;;;4.07;;
12451;SDS011;6291;48.924;12.204;2022-07-23T16:34:37;4.85;;;3.70;;
12451;SDS011;6291;48.924;12.204;2022-07-23T16:39:40;4.77;;;4.30;;
12451;SDS011;6291;48.924;12.204;2022-07-23T16:44:45;4.68;;;4.00;;
12451;SDS011;6291;48.924;12.204;2022-07-23T16:49:48;7.50;;;4.80;;
12451;SDS011;6291;48.924;12.204;2022-07-23T16:54:52;5.10;;;4.70;;
12451;SDS011;6291;48.924;12.204;2022-07-23T16:59:56;5.57;;;5.07;;
12451;SDS011;6291;48.924;12.204;2022-07-23T17:05:00;5.60;;;5.10;;
12451;SDS011;6291;48.924;12.204;2022-07-23T17:10:04;5.95;;;5.40;;
12451;SDS011;6291;48.924;12.204;2022-07-23T17:15:10;4.78;;;4.30;;
12451;SDS011;6291;48.924;12.204;2022-07-23T17:20:15;4.28;;;3.78;;
12451;SDS011;6291;48.924;12.204;2022-07-23T17:25:19;4.50;;;3.80;;
12451;SDS011;6291;48.924;12.204;2022-07-23T17:30:26;4.40;;;4.10;;
12451;SDS011;6291;48.924;12.204;2022-07-23T17:35:30;6.50;;;6.00;;
12451;SDS011;6291;48.924;12.204;2022-07-23T17:40:33;6.03;;;5.53;;
12451;SDS011;6291;48.924;12.204;2022-07-23T17:45:38;6.87;;;6.27;;
12451;SDS011;6291;48.924;12.204;2022-07-23T17:50:44;8.48;;;7.68;;
12451;SDS011;6291;48.924;12.204;2022-07-23T17:55:53;6.88;;;5.90;;
12451;SDS011;6291;48.924;12.204;2022-07-23T18:00:58;7.65;;;6.30;;
12451;SDS011;6291;48.924;12.204;2022-07-23T18:06:01;7.13;;;6.43;;
12451;SDS011;6291;48.924;12.204;2022-07-23T18:11:05;6.78;;;6.18;;
12451;SDS011;6291;48.924;12.204;2022-07-23T18:16:10;6.22;;;5.72;;
12451;SDS011;6291;48.924;12.204;2022-07-23T18:21:13;11.85;;;10.63;;
12451;SDS011;6291;48.924;12.204;2022-07-23T18:26:17;6.90;;;6.22;;
12451;SDS011;6291;48.924;12.204;2022-07-23T18:31:22;7.03;;;6.43;;
12451;SDS011;6291;48.924;12.204;2022-07-23T18:36:26;6.85;;;6.20;;
12451;SDS011;6291;48.924;12.204;2022-07-23T18:41:32;7.43;;;6.70;;
12451;SDS011;6291;48.924;12.204;2022-07-23T18:46:37;7.75;;;6.88;;
12451;SDS011;6291;48.924;12.204;2022-07-23T18:51:41;7.75;;;7.13;;
12451;SDS011;6291;48.924;12.204;2022-07-23T18:56:44;7.40;;;6.80;;
12451;SDS011;6291;48.924;12.204;2022-07-23T19:01:49;7.70;;;7.00;;
12451;SDS011;6291;48.924;12.204;2022-07-23T19:06:53;7.87;;;7.10;;
12451;SDS011;6291;48.924;12.204;2022-07-23T19:11:56;8.70;;;7.80;;
12451;SDS011;6291;48.924;12.204;2022-07-23T19:17:01;8.13;;;7.43;;
12451;SDS011;6291;48.924;12.204;2022-07-23T19:22:05;8.30;;;7.60;;
12451;SDS011;6291;48.924;12.204;2022-07-23T19:27:10;10.45;;;9.48;;
12451;SDS011;6291;48.924;12.204;2022-07-23T19:32:15;7.73;;;7.03;;
12451;SDS011;6291;48.924;12.204;2022-07-23T19:37:18;7.15;;;6.55;;
12451;SDS011;6291;48.924;12.204;2022-07-23T19:42:22;7.60;;;6.90;;
12451;SDS011;6291;48.924;12.204;2022-07-23T19:47:27;7.60;;;6.90;;
12451;SDS011;6291;48.924;12.204;2022-07-23T19:52:31;7.60;;;6.90;;
12451;SDS011;6291;48.924;12.204;2022-07-23T19:57:35;7.68;;;6.88;;
12451;SDS011;6291;48.924;12.204;2022-07-23T20:02:41;7.82;;;7.03;;
12451;SDS011;6291;48.924;12.204;2022-07-23T20:07:45;9.07;;;8.27;;
12451;SDS011;6291;48.924;12.204;2022-07-23T20:12:48;10.00;;;9.10;;
12451;SDS011;6291;48.924;12.204;2022-07-23T20:17:53;9.10;;;8.20;;
12451;SDS011;6291;48.924;12.204;2022-07-23T20:22:56;8.07;;;7.27;;
12451;SDS011;6291;48.924;12.204;2022-07-23T20:28:00;8.30;;;7.55;;
12451;SDS011;6291;48.924;12.204;2022-07-23T20:33:05;7.90;;;7.20;;
12451;SDS011;6291;48.924;12.204;2022-07-23T20:38:08;7.95;;;7.25;;
12451;SDS011;6291;48.924;12.204;2022-07-23T20:43:12;8.30;;;7.50;;
12451;SDS011;6291;48.924;12.204;2022-07-23T20:48:17;7.88;;;7.18;;
12451;SDS011;6291;48.924;12.204;2022-07-23T20:53:29;8.83;;;7.83;;
12451;SDS011;6291;48.924;12.204;2022-07-23T20:58:33;8.55;;;7.70;;
12451;SDS011;6291;48.924;12.204;2022-07-23T21:03:37;8.50;;;7.80;;
12451;SDS011;6291;48.924;12.204;2022-07-23T21:08:41;8.57;;;7.88;;
12451;SDS011;6291;48.924;12.204;2022-07-23T21:13:44;9.80;;;9.00;;
12451;SDS011;6291;48.924;12.204;2022-07-23T21:18:49;8.30;;;7.60;;
12451;SDS011;6291;48.924;12.204;2022-07-23T21:23:52;9.00;;;8.17;;
12451;SDS011;6291;48.924;12.204;2022-07-23T21:28:56;9.80;;;8.43;;
12451;SDS011;6291;48.924;12.204;2022-07-23T21:34:02;9.27;;;8.48;;
12451;SDS011;6291;48.924;12.204;2022-07-23T21:39:06;10.25;;;9.45;;
12451;SDS011;6291;48.924;12.204;2022-07-23T21:44:09;9.88;;;8.98;;
12451;SDS011;6291;48.924;12.204;2022-07-23T21:49:14;11.75;;;10.73;;
12451;SDS011;6291;48.924;12.204;2022-07-23T21:54:18;12.55;;;11.45;;
12451;SDS011;6291;48.924;12.204;2022-07-23T21:59:22;12.35;;;11.30;;
12451;SDS011;6291;48.924;12.204;2022-07-23T22:04:26;12.10;;;11.10;;
12451;SDS011;6291;48.924;12.204;2022-07-23T22:09:30;12.95;;;11.75;;
12451;SDS011;6291;48.924;12.204;2022-07-23T22:14:33;12.63;;;11.52;;
12451;SDS011;6291;48.924;12.204;2022-07-23T22:19:38;14.23;;;12.83;;
12451;SDS011;6291;48.924;12.204;2022-07-23T22:24:41;12.85;;;11.65;;
12451;SDS011;6291;48.924;12.204;2022-07-23T22:29:44;11.07;;;10.07;;
12451;SDS011;6291;48.924;12.204;2022-07-23T22:34:49;11.30;;;10.30;;
12451;SDS011;6291;48.924;12.204;2022-07-23T22:39:53;12.23;;;11.02;;
12451;SDS011;6291;48.924;12.204;2022-07-23T22:44:56;10.88;;;9.77;;
12451;SDS011;6291;48.924;12.204;2022-07-23T22:50:01;11.77;;;10.68;;
12451;SDS011;6291;48.924;12.204;2022-07-23T22:55:11;9.77;;;8.77;;
12451;SDS011;6291;48.924;12.204;2022-07-23T23:00:15;11.90;;;10.80;;
12451;SDS011;6291;48.924;12.204;2022-07-23T23:05:21;12.38;;;11.13;;
12451;SDS011;6291;48.924;12.204;2022-07-23T23:10:24;12.80;;;11.60;;
12451;SDS011;6291;48.924;12.204;2022-07-23T23:15:28;12.18;;;11.05;;
12451;SDS011;6291;48.924;12.204;2022-07-23T23:20:33;11.32;;;10.18;;
12451;SDS011;6291;48.924;12.204;2022-07-23T23:25:36;9.60;;;8.70;;
12451;SDS011;6291;48.924;12.204;2022-07-23T23:30:40;10.13;;;9.23;;
12451;SDS011;6291;48.924;12.204;2022-07-23T23:35:48;10.52;;;9.52;;
12451;SDS011;6291;48.924;12.204;2022-07-23T23:40:51;11.63;;;10.13;;
12451;SDS011;6291;48.924;12.204;2022-07-23T23:45:55;11.30;;;10.10;;
12451;SDS011;6291;48.924;12.204;2022-07-23T23:51:00;9.80;;;8.90;;
12451;SDS011;6291;48.924;12.204;2022-07-23T23:56:03;10.20;;;9.30;;
